createdAt,value
2022-09-28T00:01:07.542Z,89.52
2022-09-28T00:03:35.637Z,89.66
2022-09-28T00:06:04.883Z,89.56
2022-09-28T00:08:33.200Z,89.43
2022-09-28T00:11:03.520Z,89.59
2022-09-28T00:13:33.029Z,89.95
2022-09-28T00:16:02.997Z,89.47
2022-09-28T00:18:31.097Z,89.47
2022-09-28T00:21:07.288Z,89.47
2022-09-28T00:23:56.879Z,89.74
2022-09-28T00:26:26.143Z,89.51
2022-09-28T00:28:53.946Z,90.27
2022-09-28T00:31:22.197Z,90.00
2022-09-28T00:33:51.624Z,89.92
2022-09-28T00:36:19.436Z,89.86
2022-09-28T00:38:47.467Z,90.01
2022-09-28T00:41:15.954Z,90.54
2022-09-28T00:43:45.084Z,89.97
2022-09-28T00:46:19.414Z,90.01
2022-09-28T00:48:53.577Z,89.80
2022-09-28T00:51:22.137Z,90.00
2022-09-28T00:53:51.829Z,90.06
2022-09-28T00:56:22.711Z,89.80
2022-09-28T00:58:54.684Z,89.57
2022-09-28T01:01:22.908Z,89.77
2022-09-28T01:03:51.518Z,89.95
2022-09-28T01:06:22.095Z,90.02
2022-09-28T01:08:54.120Z,89.77
2022-09-28T01:11:22.729Z,89.71
2022-09-28T01:13:54.538Z,89.62
2022-09-28T01:16:33.923Z,89.82
2022-09-28T01:19:15.410Z,90.00
2022-09-28T01:21:51.666Z,89.63
2022-09-28T01:24:41.569Z,89.28
2022-09-28T01:27:25.178Z,89.61
2022-09-28T01:30:00.566Z,89.41
2022-09-28T01:32:37.648Z,89.78
2022-09-28T01:35:11.438Z,90.24
2022-09-28T01:37:46.906Z,90.47
2022-09-28T01:40:17.292Z,90.96
2022-09-28T01:42:50.299Z,90.86
2022-09-28T01:45:24.099Z,90.36
2022-09-28T01:47:56.894Z,90.97
2022-09-28T01:50:29.951Z,90.85
2022-09-28T01:53:02.337Z,90.63
2022-09-28T01:55:34.932Z,91.25
2022-09-28T01:58:11.475Z,91.48
2022-09-28T02:00:44.239Z,91.27
2022-09-28T02:03:17.649Z,91.22
2022-09-28T02:05:50.310Z,91.88
2022-09-28T02:08:25.514Z,91.43
2022-09-28T02:11:01.001Z,91.49
2022-09-28T02:13:36.789Z,91.68
2022-09-28T02:16:08.510Z,91.14
2022-09-28T02:18:37.419Z,91.68
2022-09-28T02:21:10.227Z,92.12
2022-09-28T02:23:42.889Z,92.21
2022-09-28T02:26:15.273Z,91.86
2022-09-28T02:28:44.766Z,91.99
2022-09-28T02:31:12.893Z,91.89
2022-09-28T02:33:43.489Z,92.30
2022-09-28T02:36:12.222Z,92.21
2022-09-28T02:38:40.573Z,91.88
2022-09-28T02:41:15.048Z,92.12
2022-09-28T02:43:58.491Z,92.01
2022-09-28T02:46:34.055Z,91.98
2022-09-28T02:49:21.781Z,92.00
2022-09-28T02:52:01.537Z,91.38
2022-09-28T02:54:45.903Z,91.63
2022-09-28T02:57:29.562Z,92.04
2022-09-28T03:00:08.263Z,91.89
2022-09-28T03:02:43.115Z,91.61
2022-09-28T03:05:16.776Z,91.54
2022-09-28T03:07:52.366Z,91.32
2022-09-28T03:10:26.929Z,91.49
2022-09-28T03:12:56.653Z,91.20
2022-09-28T03:15:28.798Z,91.27
2022-09-28T03:17:57.876Z,91.84
2022-09-28T03:20:26.861Z,91.46
2022-09-28T03:23:19.786Z,91.13
2022-09-28T03:25:42.911Z,91.63
2022-09-28T03:28:10.972Z,91.44
2022-09-28T03:30:40.477Z,91.75
2022-09-28T03:33:09.692Z,92.20
2022-09-28T03:35:37.702Z,92.53
2022-09-28T03:38:05.852Z,91.80
2022-09-28T03:40:34.014Z,91.74
2022-09-28T03:43:02.315Z,92.45
2022-09-28T03:45:30.458Z,91.92
2022-09-28T03:48:00.333Z,92.07
2022-09-28T03:50:28.516Z,92.23
2022-09-28T03:52:56.536Z,92.06
2022-09-28T03:55:24.616Z,92.60
2022-09-28T03:57:56.496Z,92.10
2022-09-28T04:00:27.125Z,92.32
2022-09-28T04:02:55.218Z,91.98
2022-09-28T04:05:24.592Z,91.91
2022-09-28T04:07:53.984Z,91.92
2022-09-28T04:10:22.169Z,92.37
2022-09-28T04:12:51.011Z,92.32
2022-09-28T04:15:19.102Z,92.13
2022-09-28T04:17:48.481Z,92.22
2022-09-28T04:20:16.461Z,91.87
2022-09-28T04:22:45.871Z,91.95
2022-09-28T04:25:14.118Z,91.86
2022-09-28T04:27:59.334Z,91.57
2022-09-28T04:30:27.299Z,91.83
2022-09-28T04:32:55.313Z,91.33
2022-09-28T04:35:23.359Z,91.72
2022-09-28T04:37:52.733Z,91.53
2022-09-28T04:40:20.766Z,92.06
2022-09-28T04:42:54.705Z,91.61
2022-09-28T04:45:22.876Z,91.98
2022-09-28T04:47:50.795Z,91.96
2022-09-28T04:50:18.792Z,91.65
2022-09-28T04:52:47.244Z,92.02
2022-09-28T04:55:17.777Z,91.86
2022-09-28T04:57:45.893Z,92.18
2022-09-28T05:00:15.164Z,92.33
2022-09-28T05:02:43.244Z,92.38
2022-09-28T05:05:11.308Z,92.36
2022-09-28T05:07:39.418Z,92.26
2022-09-28T05:10:07.806Z,92.34
2022-09-28T05:12:37.275Z,92.15
2022-09-28T05:15:06.138Z,92.42
2022-09-28T05:17:34.224Z,92.28
2022-09-28T05:20:03.122Z,92.94
2022-09-28T05:22:31.227Z,92.43
2022-09-28T05:25:00.444Z,92.63
2022-09-28T05:27:28.482Z,92.37
2022-09-28T05:29:57.864Z,92.61
2022-09-28T05:32:25.915Z,93.05
2022-09-28T05:34:55.770Z,93.18
2022-09-28T05:37:24.212Z,93.08
2022-09-28T05:39:52.358Z,93.31
2022-09-28T05:42:20.365Z,92.87
2022-09-28T05:44:49.926Z,92.64
2022-09-28T05:47:19.376Z,93.13
2022-09-28T05:49:47.420Z,93.02
2022-09-28T05:52:16.618Z,92.83
2022-09-28T05:54:44.691Z,92.72
2022-09-28T05:57:13.279Z,93.24
2022-09-28T05:59:41.539Z,92.79
2022-09-28T06:02:12.160Z,93.28
2022-09-28T06:04:42.894Z,93.13
2022-09-28T06:07:10.933Z,93.52
2022-09-28T06:09:38.908Z,93.49
2022-09-28T06:12:07.052Z,93.59
2022-09-28T06:14:36.473Z,92.97
2022-09-28T06:17:04.486Z,92.93
2022-09-28T06:19:32.564Z,93.13
2022-09-28T06:22:01.969Z,93.44
2022-09-28T06:24:29.974Z,93.41
2022-09-28T06:26:58.120Z,93.14
2022-09-28T06:29:27.132Z,93.39
2022-09-28T06:31:56.135Z,93.29
2022-09-28T06:34:24.901Z,93.74
2022-09-28T06:36:53.070Z,93.64
2022-09-28T06:39:22.490Z,93.98
2022-09-28T06:41:50.647Z,93.94
2022-09-28T06:44:18.893Z,94.33
2022-09-28T06:46:47.280Z,94.50
2022-09-28T06:49:19.333Z,94.71
2022-09-28T06:51:47.987Z,95.03
2022-09-28T06:54:17.060Z,94.20
2022-09-28T06:56:47.233Z,94.22
2022-09-28T06:59:15.374Z,94.32
2022-09-28T07:01:43.617Z,94.17
2022-09-28T07:04:11.831Z,94.33
2022-09-28T07:06:40.029Z,94.51
2022-09-28T07:09:28.587Z,94.19
2022-09-28T07:11:58.052Z,94.87
2022-09-28T07:14:44.392Z,95.21
2022-09-28T07:17:15.067Z,95.01
2022-09-28T07:19:43.274Z,94.61
2022-09-28T07:22:18.405Z,94.24
2022-09-28T07:24:47.593Z,94.06
2022-09-28T07:27:17.042Z,93.91
2022-09-28T07:29:45.143Z,93.88
2022-09-28T07:32:13.236Z,93.98
2022-09-28T07:34:44.675Z,93.55
2022-09-28T07:37:13.541Z,93.55
2022-09-28T07:40:14.099Z,94.00
2022-09-28T07:42:43.574Z,93.52
2022-09-28T07:45:14.326Z,94.11
2022-09-28T07:47:42.456Z,93.94
2022-09-28T07:50:11.376Z,94.42
2022-09-28T07:52:42.744Z,94.03
2022-09-28T07:55:11.092Z,93.83
2022-09-28T07:57:40.078Z,94.02
2022-09-28T08:00:11.028Z,93.91
2022-09-28T08:02:39.285Z,93.79
2022-09-28T08:05:10.365Z,93.80
2022-09-28T08:07:38.830Z,93.63
2022-09-28T08:10:07.702Z,94.05
2022-09-28T08:12:36.105Z,94.03
2022-09-28T08:15:06.986Z,94.16
2022-09-28T08:17:36.624Z,94.43
2022-09-28T08:20:22.551Z,94.06
2022-09-28T08:22:50.934Z,93.88
2022-09-28T08:25:21.493Z,93.80
2022-09-28T08:27:50.083Z,93.81
2022-09-28T08:30:18.964Z,93.68
2022-09-28T08:32:50.140Z,93.70
2022-09-28T08:35:18.622Z,93.88
2022-09-28T08:37:55.527Z,93.69
2022-09-28T08:40:27.594Z,93.55
2022-09-28T08:43:00.912Z,93.29
2022-09-28T08:45:31.668Z,93.59
2022-09-28T08:48:24.865Z,93.26
2022-09-28T08:50:59.338Z,93.28
2022-09-28T08:53:39.831Z,93.15
2022-09-28T08:56:15.976Z,92.94
2022-09-28T08:58:52.206Z,92.99
2022-09-28T09:01:32.760Z,93.11
2022-09-28T09:04:06.045Z,92.62
2022-09-28T09:07:06.327Z,93.16
2022-09-28T09:15:35.463Z,91.93
2022-09-28T09:18:20.364Z,91.97
2022-09-28T09:20:59.167Z,91.87
2022-09-28T09:23:37.508Z,91.67
2022-09-28T09:26:19.037Z,90.90
2022-09-28T09:29:27.480Z,90.43
2022-09-28T09:32:48.630Z,90.68
2022-09-28T09:35:58.453Z,89.57
2022-09-28T09:42:08.894Z,88.31
2022-09-28T09:45:07.547Z,86.90
2022-09-28T09:47:48.544Z,87.84
2022-09-28T09:50:52.566Z,85.79
2022-09-28T09:53:54.045Z,85.40
2022-09-28T09:56:46.964Z,85.34
2022-09-28T09:59:32.607Z,85.42
2022-09-28T10:04:58.733Z,85.57
2022-09-28T10:07:31.661Z,85.61
2022-09-28T10:10:02.847Z,85.05
2022-09-28T10:12:32.441Z,83.90
2022-09-28T10:15:01.832Z,84.60
2022-09-28T10:17:29.614Z,85.55
2022-09-28T10:19:58.016Z,84.40
2022-09-28T10:22:28.604Z,84.27
2022-09-28T10:24:58.816Z,83.87
2022-09-28T10:27:30.745Z,82.58
2022-09-28T10:30:03.140Z,82.99
2022-09-28T10:32:39.571Z,82.50
2022-09-28T10:35:31.507Z,82.18
2022-09-28T10:38:04.565Z,81.45
2022-09-28T10:40:43.451Z,78.66
2022-09-28T10:43:21.713Z,79.32
2022-09-28T10:46:02.040Z,77.42
2022-09-28T10:48:35.785Z,78.94
2022-09-28T10:51:06.628Z,80.42
2022-09-28T10:53:37.237Z,79.96
2022-09-28T10:56:08.175Z,80.37
2022-09-28T10:58:40.603Z,80.26
2022-09-28T11:01:12.387Z,80.32
2022-09-28T11:03:51.448Z,79.12
2022-09-28T11:06:26.449Z,79.23
2022-09-28T11:08:55.828Z,79.82
2022-09-28T11:11:24.724Z,79.87
2022-09-28T11:13:54.861Z,80.54
2022-09-28T11:16:28.684Z,80.54
2022-09-28T11:18:57.105Z,80.82
2022-09-28T11:21:28.173Z,80.38
2022-09-28T11:24:08.117Z,79.24
2022-09-28T11:26:39.413Z,79.65
2022-09-28T11:29:08.610Z,80.19
2022-09-28T11:31:39.990Z,79.00
2022-09-28T11:34:15.982Z,79.26
2022-09-28T11:37:08.072Z,78.64
2022-09-28T11:39:46.499Z,77.39
2022-09-28T11:42:25.587Z,77.96
2022-09-28T11:45:02.056Z,78.36
2022-09-28T11:47:54.276Z,76.58
2022-09-28T11:50:32.450Z,77.85
2022-09-28T11:53:14.588Z,76.39
2022-09-28T11:55:46.625Z,77.27
2022-09-28T11:58:23.343Z,77.14
2022-09-28T12:00:55.672Z,77.07
2022-09-28T12:03:30.642Z,75.48
2022-09-28T12:06:02.099Z,75.82
2022-09-28T12:08:34.418Z,76.36
2022-09-28T12:11:09.786Z,76.75
2022-09-28T12:13:42.371Z,76.49
2022-09-28T12:16:38.824Z,74.99
2022-09-28T12:19:12.815Z,75.45
2022-09-28T12:21:46.726Z,75.73
2022-09-28T12:24:19.595Z,73.98
2022-09-28T12:26:53.408Z,74.40
2022-09-28T12:29:25.700Z,74.75
2022-09-28T12:31:59.575Z,75.14
2022-09-28T12:34:28.909Z,76.44
2022-09-28T12:37:09.580Z,75.42
2022-09-28T12:39:59.650Z,75.89
2022-09-28T12:42:45.299Z,75.05
2022-09-28T12:45:38.789Z,76.52
2022-09-28T12:48:36.496Z,76.29
2022-09-28T12:51:19.757Z,77.06
2022-09-28T12:54:01.748Z,76.67
2022-09-28T12:56:40.390Z,76.58
2022-09-28T12:59:19.948Z,76.85
2022-09-28T13:02:02.954Z,76.50
2022-09-28T13:04:48.709Z,74.73
2022-09-28T13:07:27.595Z,74.71
2022-09-28T13:10:05.991Z,74.84
2022-09-28T13:12:44.941Z,73.55
2022-09-28T13:15:36.867Z,72.64
2022-09-28T13:18:22.850Z,72.28
2022-09-28T13:21:04.053Z,73.29
2022-09-28T13:23:38.765Z,73.25
2022-09-28T13:26:15.894Z,73.23
2022-09-28T13:28:46.949Z,73.85
2022-09-28T13:31:21.365Z,73.33
2022-09-28T13:33:51.088Z,73.72
2022-09-28T13:36:39.310Z,73.02
2022-09-28T13:39:38.507Z,72.99
2022-09-28T13:42:09.931Z,71.91
2022-09-28T13:45:04.111Z,71.25
2022-09-28T13:47:52.147Z,71.93
2022-09-28T13:50:29.715Z,72.34
2022-09-28T13:53:09.294Z,73.32
2022-09-28T13:55:52.618Z,73.19
2022-09-28T13:58:25.809Z,73.73
2022-09-28T14:01:01.137Z,73.56
2022-09-28T14:03:44.208Z,73.03
2022-09-28T14:06:27.051Z,73.77
2022-09-28T14:09:42.288Z,73.83
2022-09-28T14:12:48.751Z,73.34
2022-09-28T14:15:44.998Z,74.59
2022-09-28T14:18:23.547Z,74.88
2022-09-28T14:21:05.393Z,74.94
2022-09-28T14:24:16.450Z,74.45
2022-09-28T14:27:09.973Z,74.67
2022-09-28T14:29:39.817Z,75.51
2022-09-28T14:32:24.560Z,75.38
2022-09-28T14:35:00.774Z,75.56
2022-09-28T14:37:49.625Z,76.10
2022-09-28T14:40:40.468Z,75.68
2022-09-28T14:43:27.835Z,76.07
2022-09-28T14:46:34.985Z,75.99
2022-09-28T14:49:06.602Z,75.80
2022-09-28T14:52:13.486Z,74.99
2022-09-28T14:54:54.192Z,75.07
2022-09-28T14:57:30.088Z,74.48
2022-09-28T15:00:00.605Z,73.17
2022-09-28T15:02:33.069Z,72.48
2022-09-28T15:05:10.911Z,73.46
2022-09-28T15:07:47.920Z,72.28
2022-09-28T15:10:32.541Z,72.90
2022-09-28T15:13:02.361Z,73.28
2022-09-28T15:15:34.547Z,73.56
2022-09-28T15:18:31.082Z,72.81
2022-09-28T15:21:00.439Z,73.58
2022-09-28T15:23:35.552Z,73.44
2022-09-28T15:26:03.823Z,73.83
2022-09-28T15:28:31.574Z,74.93
2022-09-28T15:31:01.565Z,75.04
2022-09-28T15:33:48.521Z,75.43
2022-09-28T15:36:21.507Z,75.05
2022-09-28T15:38:56.586Z,75.58
2022-09-28T15:41:25.608Z,76.18
2022-09-28T15:44:08.437Z,76.21
2022-09-28T15:46:38.679Z,76.63
2022-09-28T15:49:08.345Z,76.69
2022-09-28T15:51:52.212Z,76.24
2022-09-28T15:54:24.818Z,76.78
2022-09-28T15:56:59.525Z,76.96
2022-09-28T15:59:31.886Z,76.87
2022-09-28T16:02:18.412Z,76.82
2022-09-28T16:04:51.543Z,76.94
2022-09-28T16:07:24.409Z,76.68
2022-09-28T16:10:04.771Z,76.53
2022-09-28T16:12:42.480Z,76.31
2022-09-28T16:15:18.297Z,76.58
2022-09-28T16:17:51.606Z,76.40
2022-09-28T16:20:24.485Z,76.92
2022-09-28T16:22:53.948Z,77.07
2022-09-28T16:25:25.106Z,77.10
2022-09-28T16:27:55.170Z,77.20
2022-09-28T16:30:25.358Z,77.13
2022-09-28T16:32:56.464Z,77.55
2022-09-28T16:35:30.877Z,77.94
2022-09-28T16:38:03.457Z,78.32
2022-09-28T16:40:33.095Z,78.41
2022-09-28T16:43:05.180Z,79.14
2022-09-28T16:45:32.942Z,79.28
2022-09-28T16:48:01.632Z,79.36
2022-09-28T16:50:29.682Z,79.36
2022-09-28T16:53:21.258Z,79.73
2022-09-28T16:55:50.724Z,79.73
2022-09-28T16:58:19.069Z,80.16
2022-09-28T17:00:46.921Z,80.40
2022-09-28T17:03:18.332Z,80.59
2022-09-28T17:05:48.720Z,80.74
2022-09-28T17:08:19.681Z,81.18
2022-09-28T17:11:13.895Z,81.07
2022-09-28T17:13:41.416Z,81.02
2022-09-28T17:16:13.494Z,81.39
2022-09-28T17:18:41.770Z,81.86
2022-09-28T17:21:15.792Z,82.17
2022-09-28T17:23:45.936Z,81.85
2022-09-28T17:26:20.223Z,81.04
2022-09-28T17:28:47.992Z,81.44
2022-09-28T17:31:17.394Z,81.57
2022-09-28T17:33:45.191Z,81.07
2022-09-28T17:36:15.931Z,81.26
2022-09-28T17:38:45.977Z,80.92
2022-09-28T17:41:20.244Z,81.04
2022-09-28T17:43:48.773Z,81.25
2022-09-28T17:46:28.268Z,80.65
2022-09-28T17:48:59.494Z,81.03
2022-09-28T17:51:28.580Z,80.82
2022-09-28T17:53:58.100Z,80.82
2022-09-28T17:56:31.133Z,80.61
2022-09-28T17:59:01.562Z,80.63
2022-09-28T18:01:34.381Z,80.67
2022-09-28T18:04:03.626Z,80.64
2022-09-28T18:06:33.487Z,80.80
2022-09-28T18:09:03.895Z,80.87
2022-09-28T18:11:33.205Z,81.17
2022-09-28T18:14:01.210Z,81.34
2022-09-28T18:16:29.858Z,81.32
2022-09-28T18:18:59.169Z,81.76
2022-09-28T18:21:26.963Z,81.74
2022-09-28T18:23:54.776Z,81.98
2022-09-28T18:26:23.909Z,82.10
2022-09-28T18:28:55.113Z,81.91
2022-09-28T18:31:23.013Z,81.82
2022-09-28T18:33:51.048Z,82.33
2022-09-28T18:36:19.086Z,82.23
2022-09-28T18:38:47.019Z,82.16
2022-09-28T18:41:16.567Z,82.35
2022-09-28T18:43:50.037Z,82.37
2022-09-28T18:46:18.950Z,82.32
2022-09-28T18:48:47.774Z,82.77
2022-09-28T18:51:16.030Z,82.81
2022-09-28T18:53:43.915Z,82.83
2022-09-28T18:56:13.302Z,82.65
2022-09-28T18:58:42.675Z,82.25
2022-09-28T19:01:31.370Z,82.37
2022-09-28T19:04:01.398Z,82.57
2022-09-28T19:06:29.843Z,82.49
2022-09-28T19:08:58.779Z,82.24
2022-09-28T19:11:27.147Z,82.59
2022-09-28T19:13:56.329Z,82.73
2022-09-28T19:16:27.457Z,82.90
2022-09-28T19:18:57.195Z,82.47
2022-09-28T19:21:25.414Z,82.90
2022-09-28T19:23:55.276Z,82.98
2022-09-28T19:26:24.743Z,83.06
2022-09-28T19:28:53.958Z,83.38
2022-09-28T19:31:22.649Z,83.36
2022-09-28T19:33:51.813Z,83.42
2022-09-28T19:36:21.925Z,83.71
2022-09-28T19:38:49.662Z,83.99
2022-09-28T19:41:43.040Z,84.33
2022-09-28T19:44:15.830Z,84.43
2022-09-28T19:46:43.951Z,84.19
2022-09-28T19:49:19.358Z,84.46
2022-09-28T19:52:11.949Z,84.63
2022-09-28T19:54:38.156Z,84.38
2022-09-28T19:57:08.764Z,84.44
2022-09-28T19:59:38.150Z,84.72
2022-09-28T20:02:07.705Z,84.67
2022-09-28T20:04:36.996Z,84.63
2022-09-28T20:07:05.650Z,84.70
2022-09-28T20:09:33.769Z,84.54
2022-09-28T20:12:01.859Z,84.46
2022-09-28T20:14:34.017Z,84.42
2022-09-28T20:17:04.289Z,84.23
2022-09-28T20:19:35.053Z,84.49
2022-09-28T20:22:04.723Z,84.62
2022-09-28T20:24:33.526Z,84.68
2022-09-28T20:27:02.499Z,84.55
2022-09-28T20:29:31.625Z,84.65
2022-09-28T20:32:00.432Z,84.99
2022-09-28T20:34:28.375Z,84.86
2022-09-28T20:36:56.403Z,84.83
2022-09-28T20:39:25.617Z,84.80
2022-09-28T20:41:55.536Z,84.43
2022-09-28T20:44:23.467Z,84.33
2022-09-28T20:46:52.059Z,84.43
2022-09-28T20:49:19.886Z,84.63
2022-09-28T20:51:47.821Z,84.68
2022-09-28T20:54:18.563Z,84.64
2022-09-28T20:56:48.303Z,84.82
2022-09-28T20:59:16.365Z,84.59
2022-09-28T21:01:44.674Z,84.70
2022-09-28T21:04:12.889Z,84.85
2022-09-28T21:06:42.712Z,84.90
2022-09-28T21:09:12.423Z,85.23
2022-09-28T21:11:40.359Z,84.99
2022-09-28T21:14:10.785Z,85.02
2022-09-28T21:16:39.223Z,85.16
2022-09-28T21:19:07.060Z,85.01
2022-09-28T21:21:34.869Z,85.13
2022-09-28T21:24:03.379Z,85.09
2022-09-28T21:26:32.259Z,85.05
2022-09-28T21:29:01.793Z,84.74
2022-09-28T21:31:38.594Z,84.66
2022-09-28T21:34:06.713Z,85.06
2022-09-28T21:36:35.125Z,84.66
2022-09-28T21:39:05.008Z,85.04
2022-09-28T21:41:36.041Z,84.72
2022-09-28T21:44:04.040Z,84.76
2022-09-28T21:46:34.698Z,84.76
2022-09-28T21:49:03.021Z,84.52
2022-09-28T21:51:31.479Z,84.67
2022-09-28T21:54:01.845Z,84.96
2022-09-28T21:56:29.586Z,84.49
2022-09-28T21:58:57.479Z,84.53
2022-09-28T22:01:26.665Z,84.50
2022-09-28T22:03:57.689Z,84.42
2022-09-28T22:06:28.305Z,84.45
2022-09-28T22:08:56.719Z,84.51
2022-09-28T22:11:26.206Z,84.35
2022-09-28T22:13:55.382Z,84.57
2022-09-28T22:16:26.580Z,84.98
2022-09-28T22:18:56.115Z,84.43
2022-09-28T22:21:25.575Z,84.47
2022-09-28T22:23:53.498Z,84.49
2022-09-28T22:26:23.626Z,84.81
2022-09-28T22:28:54.168Z,84.39
2022-09-28T22:31:25.097Z,84.45
2022-09-28T22:33:53.569Z,84.78
2022-09-28T22:36:22.712Z,84.80
2022-09-28T22:38:50.755Z,84.39
2022-09-28T22:41:20.955Z,84.71
2022-09-28T22:43:49.155Z,84.67
2022-09-28T22:46:18.834Z,84.77
2022-09-28T22:48:48.333Z,85.00
2022-09-28T22:51:16.092Z,85.09
2022-09-28T22:53:45.412Z,84.70
2022-09-28T22:56:18.504Z,84.87
2022-09-28T22:58:47.218Z,84.96
2022-09-28T23:01:17.267Z,84.54
2022-09-28T23:03:45.572Z,84.89
2022-09-28T23:06:16.053Z,84.80
2022-09-28T23:08:45.857Z,84.45
2022-09-28T23:11:13.666Z,84.71
2022-09-28T23:13:41.349Z,84.70
2022-09-28T23:16:12.264Z,84.67
2022-09-28T23:18:41.990Z,84.21
2022-09-28T23:21:13.287Z,84.38
2022-09-28T23:23:41.047Z,84.66
2022-09-28T23:26:14.399Z,84.50
2022-09-28T23:28:42.586Z,84.95
2022-09-28T23:31:12.282Z,84.84
2022-09-28T23:33:40.179Z,84.63
2022-09-28T23:36:08.879Z,84.80
2022-09-28T23:38:37.261Z,84.92
2022-09-28T23:41:05.525Z,84.83
2022-09-28T23:43:35.033Z,84.65
2022-09-28T23:46:03.079Z,84.58
2022-09-28T23:48:30.947Z,84.69
2022-09-28T23:50:58.995Z,85.21
2022-09-28T23:53:27.295Z,84.44
2022-09-28T23:55:55.750Z,85.08
2022-09-28T23:58:24.033Z,85.02
